createdAt,value
2018-08-30T00:08:27.933Z,23
2018-08-30T00:18:31.177Z,19
2018-08-30T00:28:36.430Z,18
2018-08-30T00:38:27.842Z,10
2018-08-30T00:48:28.893Z,8
2018-08-30T00:58:26.927Z,9
2018-08-30T01:08:27.012Z,9
2018-08-30T01:18:26.936Z,11
2018-08-30T01:28:27.023Z,13
2018-08-30T01:38:26.953Z,16
2018-08-30T01:48:26.956Z,20
2018-08-30T01:58:27.060Z,18
2018-08-30T02:08:26.962Z,22
2018-08-30T02:18:27.287Z,21
2018-08-30T02:28:26.955Z,23
2018-08-30T02:38:27.297Z,23
2018-08-30T02:48:26.900Z,25
2018-08-30T02:58:27.063Z,27
2018-08-30T03:08:30.952Z,26
2018-08-30T03:18:27.971Z,21
2018-08-30T03:28:26.941Z,25
2018-08-30T03:38:27.913Z,24
2018-08-30T03:48:27.864Z,29
2018-08-30T03:58:26.895Z,29
2018-08-30T04:08:26.877Z,24
2018-08-30T04:18:27.924Z,24
2018-08-30T04:28:27.129Z,31
2018-08-30T04:38:26.935Z,25
2018-08-30T04:48:26.906Z,24
2018-08-30T04:58:26.873Z,24
2018-08-30T05:08:26.964Z,25
2018-08-30T05:18:26.902Z,25
2018-08-30T05:28:27.028Z,26
2018-08-30T05:38:26.926Z,21
2018-08-30T05:48:27.947Z,19
2018-08-30T05:58:26.988Z,26
2018-08-30T06:08:28.016Z,17
2018-08-30T06:18:28.934Z,20
2018-08-30T06:28:26.975Z,14
2018-08-30T06:38:26.969Z,18
2018-08-30T06:48:27.102Z,15
2018-08-30T06:58:27.048Z,14
2018-08-30T07:08:26.994Z,12
2018-08-30T07:18:27.028Z,11
2018-08-30T07:28:27.083Z,10
2018-08-30T07:38:27.125Z,11
2018-08-30T07:48:26.932Z,11
2018-08-30T07:58:33.502Z,8
2018-08-30T08:08:40.802Z,11
2018-08-30T08:18:27.365Z,10
2018-08-30T08:28:28.349Z,8
2018-08-30T08:38:27.374Z,7
2018-08-30T08:48:27.643Z,9
2018-08-30T08:58:27.672Z,7
2018-08-30T09:08:27.286Z,9
2018-08-30T09:18:32.558Z,12
2018-08-30T09:28:29.681Z,11
2018-08-30T09:38:28.934Z,8
2018-08-30T09:48:28.684Z,8
2018-08-30T09:58:27.620Z,8
2018-08-30T10:08:27.796Z,8
2018-08-30T10:18:27.157Z,8
2018-08-30T10:28:26.944Z,8
2018-08-30T10:38:28.295Z,6
2018-08-30T10:48:29.022Z,6
2018-08-30T10:58:42.783Z,7
2018-08-30T11:08:45.767Z,7
2018-08-30T11:18:26.882Z,6
2018-08-30T11:28:27.019Z,9
2018-08-30T11:38:26.943Z,5
2018-08-30T11:48:27.024Z,8
2018-08-30T11:58:27.014Z,6
2018-08-30T12:08:27.020Z,7
2018-08-30T12:18:28.147Z,7
2018-08-30T12:28:27.680Z,6
2018-08-30T12:38:27.329Z,4
2018-08-30T12:48:27.608Z,4
2018-08-30T12:58:29.413Z,5
2018-08-30T13:08:28.098Z,8
2018-08-30T13:18:28.172Z,3
2018-08-30T13:28:27.581Z,8
2018-08-30T13:38:27.542Z,6
2018-08-30T13:48:27.367Z,4
2018-08-30T13:58:27.598Z,8
2018-08-30T14:08:27.369Z,5
2018-08-30T14:18:27.091Z,5
2018-08-30T14:28:28.281Z,2
2018-08-30T14:38:27.028Z,4
2018-08-30T14:48:27.066Z,7
2018-08-30T14:58:27.056Z,4
2018-08-30T15:08:27.144Z,8
2018-08-30T15:18:27.140Z,6
2018-08-30T15:28:27.030Z,4
2018-08-30T15:38:27.092Z,2
2018-08-30T15:48:27.262Z,3
2018-08-30T15:58:27.063Z,4
2018-08-30T16:08:28.130Z,6
2018-08-30T16:18:27.125Z,5
2018-08-30T16:28:27.129Z,5
2018-08-30T16:38:27.048Z,4
2018-08-30T16:48:27.059Z,3
2018-08-30T16:58:27.077Z,5
2018-08-30T17:08:27.061Z,6
2018-08-30T17:18:27.102Z,5
2018-08-30T17:28:27.151Z,7
2018-08-30T17:38:27.104Z,4
2018-08-30T17:48:27.060Z,6
2018-08-30T17:58:27.049Z,4
2018-08-30T18:08:27.173Z,9
2018-08-30T18:18:27.099Z,3
2018-08-30T18:28:26.992Z,4
2018-08-30T18:38:27.080Z,11
2018-08-30T18:48:27.117Z,12
2018-08-30T18:58:27.000Z,9
2018-08-30T19:08:29.527Z,10
2018-08-30T19:18:30.297Z,6
2018-08-30T19:28:30.083Z,5
2018-08-30T19:38:31.581Z,3
2018-08-30T19:48:28.296Z,7
2018-08-30T19:58:27.819Z,8
2018-08-30T20:08:27.142Z,5
2018-08-30T20:18:28.535Z,6
2018-08-30T20:28:27.078Z,7
2018-08-30T20:38:27.011Z,6
2018-08-30T20:48:27.046Z,10
2018-08-30T20:58:27.117Z,3
2018-08-30T21:08:27.192Z,5
2018-08-30T21:18:27.113Z,5
2018-08-30T21:28:27.419Z,7
2018-08-30T21:38:27.116Z,9
2018-08-30T21:48:27.156Z,5
2018-08-30T21:58:27.503Z,8
2018-08-30T22:08:27.156Z,9
2018-08-30T22:18:27.098Z,5
2018-08-30T22:28:30.828Z,4
2018-08-30T22:38:27.450Z,6
2018-08-30T22:48:27.477Z,4
2018-08-30T22:58:27.735Z,5
2018-08-30T23:08:28.027Z,4
2018-08-30T23:18:27.660Z,9
2018-08-30T23:28:27.847Z,7
2018-08-30T23:38:27.175Z,7
2018-08-30T23:52:46.437Z,3
2018-08-30T23:58:27.187Z,8
